Airfield :
LOGIN :

Register | Disclaimer

   EN    FR    IT 

 










Legend :    VFR   Marginal VFR   IFR   Intensive IFR   Very Intensive IFR
Visi :
Ceiling :
>= 8 km
>= 3000ft
5 to 8 km
1000 to 3000 ft
1500m to 5 km
500 to 1000 ft
800 to 1500m
200 to 500 ft
< 800m
< 200 ft
Symbols :   Thunderstorms  Fog  Heavy snow  Heavy precipitations  Wind > 20 kt
SIGMETs :     Misc.  Thunderstorms  Icing  Turbulence  Mountain Waves  Volcanic Ashes






- Airport Elevation : 49 ft
- IATA code : GLZ


EHGR - Gilze-Rijen Airbase

CURRENT METAR :
  • 041325Z AUTO 20010KT 180V280 9999 FEW370 18/11 Q1019 BLU NOSIG

EXPIRED METARs :
  • 041255Z AUTO 20011KT 170V250 9999 SCT210 18/11 Q1019 BLU NOSIG
  • 041225Z AUTO 20010KT 170V250 9999 FEW220 OVC360 18/11 Q1019 BLU NOSIG
  • 041155Z AUTO 21009KT 160V250 9999 OVC210 18/11 Q1019 BLU NOSIG
  • 041125Z AUTO 19011KT 150V250 9999 OVC210 16/10 Q1020 BLU NOSIG
  • 041055Z AUTO 20010KT 160V240 9999 OVC240 16/11 Q1020 BLU NOSIG

TAF TAF EHGR
Valid from the 04 at 13:00 until the 05 at 01:00 UTC


041219Z 0413/0501 21010KT CAVOK



MET'MAP, your aeronautical weather chart ! - Copyright ORBIFLY December 2007 - Disclaimer

ORBIFLY MET'MAP TEAM :

Programming & Development : Alexandra Zaïnal
Original concept : Baudouin d'Aumeries
Technical & hardware support : Manuel Goepfert
Assistance : Marc-Olivier Méhu




SOURCES & CREDITS :

   NOAA